sensor_id;sensor_type;location;lat;lon;timestamp;pressure;altitude;pressure_sealevel;temperature;humidity
33163;BME280;29282;45.656;11.302;2023-04-27T00:01:12;98423.13;;;18.64;48.14
33163;BME280;29282;45.656;11.302;2023-04-27T00:03:38;98433.31;;;18.63;48.18
33163;BME280;29282;45.656;11.302;2023-04-27T00:06:04;98426.19;;;18.71;47.39
33163;BME280;29282;45.656;11.302;2023-04-27T00:08:30;98424.25;;;18.71;47.83
33163;BME280;29282;45.656;11.302;2023-04-27T00:10:57;98418.13;;;18.66;48.17
33163;BME280;29282;45.656;11.302;2023-04-27T00:13:22;98415.91;;;18.59;48.53
33163;BME280;29282;45.656;11.302;2023-04-27T00:15:48;98406.81;;;18.67;47.59
33163;BME280;29282;45.656;11.302;2023-04-27T00:18:13;98413.75;;;18.73;47.17
33163;BME280;29282;45.656;11.302;2023-04-27T00:20:39;98412.78;;;18.69;48.33
33163;BME280;29282;45.656;11.302;2023-04-27T00:23:05;98420.25;;;18.60;48.34
33163;BME280;29282;45.656;11.302;2023-04-27T00:25:31;98414.09;;;18.63;48.01
33163;BME280;29282;45.656;11.302;2023-04-27T00:27:56;98422.59;;;18.70;47.38
33163;BME280;29282;45.656;11.302;2023-04-27T00:30:22;98419.41;;;18.68;48.21
33163;BME280;29282;45.656;11.302;2023-04-27T00:32:47;98416.72;;;18.60;48.40
33163;BME280;29282;45.656;11.302;2023-04-27T00:35:13;98414.97;;;18.55;48.61
33163;BME280;29282;45.656;11.302;2023-04-27T00:37:38;98413.91;;;18.68;47.42
33163;BME280;29282;45.656;11.302;2023-04-27T00:40:04;98416.84;;;18.72;46.99
33163;BME280;29282;45.656;11.302;2023-04-27T00:42:33;98415.88;;;18.68;48.38
33163;BME280;29282;45.656;11.302;2023-04-27T00:44:59;98412.69;;;18.57;48.17
33163;BME280;29282;45.656;11.302;2023-04-27T00:47:25;98404.94;;;18.59;47.95
33163;BME280;29282;45.656;11.302;2023-04-27T00:49:51;98406.81;;;18.67;47.32
33163;BME280;29282;45.656;11.302;2023-04-27T00:52:17;98411.50;;;18.67;48.20
33163;BME280;29282;45.656;11.302;2023-04-27T00:54:42;98404.13;;;18.59;48.07
33163;BME280;29282;45.656;11.302;2023-04-27T00:57:09;98412.09;;;18.51;48.66
33163;BME280;29282;45.656;11.302;2023-04-27T00:59:34;98403.94;;;18.64;47.65
33163;BME280;29282;45.656;11.302;2023-04-27T01:02:00;98406.81;;;18.67;47.54
33163;BME280;29282;45.656;11.302;2023-04-27T01:04:25;98405.41;;;18.61;48.41
33163;BME280;29282;45.656;11.302;2023-04-27T01:06:52;98392.22;;;18.54;48.46
33163;BME280;29282;45.656;11.302;2023-04-27T01:09:18;98398.78;;;18.62;47.85
33163;BME280;29282;45.656;11.302;2023-04-27T01:11:47;98393.91;;;18.68;47.15
33163;BME280;29282;45.656;11.302;2023-04-27T01:14:12;98387.59;;;18.67;47.69
33163;BME280;29282;45.656;11.302;2023-04-27T01:16:38;98382.97;;;18.59;47.86
33163;BME280;29282;45.656;11.302;2023-04-27T01:19:06;98381.91;;;18.51;48.50
33163;BME280;29282;45.656;11.302;2023-04-27T01:21:31;98375.22;;;18.61;47.69
33163;BME280;29282;45.656;11.302;2023-04-27T01:23:57;98387.94;;;18.66;47.52
33163;BME280;29282;45.656;11.302;2023-04-27T01:26:22;98391.69;;;18.61;48.40
33163;BME280;29282;45.656;11.302;2023-04-27T01:28:48;98392.53;;;18.53;48.27
33163;BME280;29282;45.656;11.302;2023-04-27T01:31:13;98394.31;;;18.58;47.87
33163;BME280;29282;45.656;11.302;2023-04-27T01:33:40;98397.63;;;18.63;47.29
33163;BME280;29282;45.656;11.302;2023-04-27T01:36:07;98402.00;;;18.64;48.03
33163;BME280;29282;45.656;11.302;2023-04-27T01:38:33;98400.09;;;18.56;48.19
33163;BME280;29282;45.656;11.302;2023-04-27T01:40:59;98399.03;;;18.48;48.61
33163;BME280;29282;45.656;11.302;2023-04-27T01:43:27;98405.72;;;18.60;47.60
33163;BME280;29282;45.656;11.302;2023-04-27T01:45:52;98408.16;;;18.61;47.89
33163;BME280;29282;45.656;11.302;2023-04-27T01:48:18;98414.19;;;18.54;48.19
33163;BME280;29282;45.656;11.302;2023-04-27T01:50:43;98413.56;;;18.49;48.60
33163;BME280;29282;45.656;11.302;2023-04-27T01:53:09;98419.81;;;18.58;47.79
33163;BME280;29282;45.656;11.302;2023-04-27T01:55:34;98420.38;;;18.64;47.13
33163;BME280;29282;45.656;11.302;2023-04-27T01:58:00;98418.78;;;18.63;47.86
33163;BME280;29282;45.656;11.302;2023-04-27T02:00:25;98422.72;;;18.53;47.93
33163;BME280;29282;45.656;11.302;2023-04-27T02:02:51;98423.72;;;18.48;48.42
33163;BME280;29282;45.656;11.302;2023-04-27T02:05:18;98426.88;;;18.59;47.44
33163;BME280;29282;45.656;11.302;2023-04-27T02:07:44;98434.78;;;18.61;47.60
33163;BME280;29282;45.656;11.302;2023-04-27T02:10:09;98428.69;;;18.55;48.19
33163;BME280;29282;45.656;11.302;2023-04-27T02:12:35;98429.88;;;18.45;48.39
33163;BME280;29282;45.656;11.302;2023-04-27T02:15:00;98429.81;;;18.54;47.87
33163;BME280;29282;45.656;11.302;2023-04-27T02:17:27;98432.03;;;18.61;47.25
33163;BME280;29282;45.656;11.302;2023-04-27T02:19:53;98429.63;;;18.59;48.22
33163;BME280;29282;45.656;11.302;2023-04-27T02:22:19;98432.09;;;18.52;48.29
33163;BME280;29282;45.656;11.302;2023-04-27T02:24:45;98437.75;;;18.47;48.34
33163;BME280;29282;45.656;11.302;2023-04-27T02:27:10;98438.53;;;18.56;47.56
33163;BME280;29282;45.656;11.302;2023-04-27T02:29:37;98444.34;;;18.54;48.52
33163;BME280;29282;45.656;11.302;2023-04-27T02:32:05;98454.56;;;18.45;48.52
33163;BME280;29282;45.656;11.302;2023-04-27T02:34:30;98458.59;;;18.48;48.34
33163;BME280;29282;45.656;11.302;2023-04-27T02:36:56;98458.53;;;18.57;47.54
33163;BME280;29282;45.656;11.302;2023-04-27T02:39:21;98456.72;;;18.61;47.25
33163;BME280;29282;45.656;11.302;2023-04-27T02:41:47;98456.59;;;18.57;48.44
33163;BME280;29282;45.656;11.302;2023-04-27T02:44:12;98460.50;;;18.47;48.33
33163;BME280;29282;45.656;11.302;2023-04-27T02:46:38;98456.31;;;18.50;48.07
33163;BME280;29282;45.656;11.302;2023-04-27T02:49:03;98457.41;;;18.58;47.30
33163;BME280;29282;45.656;11.302;2023-04-27T02:51:28;98460.81;;;18.54;48.20
33163;BME280;29282;45.656;11.302;2023-04-27T02:53:54;98458.91;;;18.46;48.24
33163;BME280;29282;45.656;11.302;2023-04-27T02:56:20;98463.25;;;18.47;48.42
33163;BME280;29282;45.656;11.302;2023-04-27T02:58:45;98467.41;;;18.53;47.50
33163;BME280;29282;45.656;11.302;2023-04-27T03:01:14;98470.66;;;18.55;47.80
33163;BME280;29282;45.656;11.302;2023-04-27T03:03:39;98474.41;;;18.51;48.28
33163;BME280;29282;45.656;11.302;2023-04-27T03:06:05;98468.94;;;18.42;48.45
33163;BME280;29282;45.656;11.302;2023-04-27T03:08:31;98470.81;;;18.50;47.84
33163;BME280;29282;45.656;11.302;2023-04-27T03:10:57;98471.44;;;18.56;47.27
33163;BME280;29282;45.656;11.302;2023-04-27T03:13:22;98474.84;;;18.53;48.39
33163;BME280;29282;45.656;11.302;2023-04-27T03:15:48;98476.03;;;18.43;48.33
33163;BME280;29282;45.656;11.302;2023-04-27T03:18:13;98481.19;;;18.45;48.22
33163;BME280;29282;45.656;11.302;2023-04-27T03:20:38;98475.66;;;18.53;47.42
33163;BME280;29282;45.656;11.302;2023-04-27T03:23:04;98477.59;;;18.53;48.15
33163;BME280;29282;45.656;11.302;2023-04-27T03:25:30;98482.81;;;18.46;48.15
33163;BME280;29282;45.656;11.302;2023-04-27T03:27:56;98481.72;;;18.38;48.50
33163;BME280;29282;45.656;11.302;2023-04-27T03:30:21;98485.38;;;18.51;47.65
33163;BME280;29282;45.656;11.302;2023-04-27T03:32:47;98482.44;;;18.56;47.08
33163;BME280;29282;45.656;11.302;2023-04-27T03:35:12;98484.69;;;18.54;48.03
33163;BME280;29282;45.656;11.302;2023-04-27T03:37:38;98487.81;;;18.44;48.12
33163;BME280;29282;45.656;11.302;2023-04-27T03:40:04;98493.28;;;18.44;48.14
33163;BME280;29282;45.656;11.302;2023-04-27T03:42:32;98486.31;;;18.55;47.27
33163;BME280;29282;45.656;11.302;2023-04-27T03:44:58;98480.81;;;18.55;47.61
33163;BME280;29282;45.656;11.302;2023-04-27T03:47:23;98480.53;;;18.48;47.80
33163;BME280;29282;45.656;11.302;2023-04-27T03:49:48;98483.81;;;18.41;48.16
33163;BME280;29282;45.656;11.302;2023-04-27T03:52:14;98486.16;;;18.51;47.72
33163;BME280;29282;45.656;11.302;2023-04-27T03:54:39;98493.88;;;18.58;47.12
33163;BME280;29282;45.656;11.302;2023-04-27T03:57:05;98495.66;;;18.54;48.21
33163;BME280;29282;45.656;11.302;2023-04-27T03:59:30;98489.44;;;18.45;48.20
33163;BME280;29282;45.656;11.302;2023-04-27T04:01:56;98488.63;;;18.44;48.26
33163;BME280;29282;45.656;11.302;2023-04-27T04:04:24;98491.00;;;18.54;47.13
33163;BME280;29282;45.656;11.302;2023-04-27T04:06:50;98486.31;;;18.55;47.96
33163;BME280;29282;45.656;11.302;2023-04-27T04:09:16;98486.03;;;18.48;48.19
33163;BME280;29282;45.656;11.302;2023-04-27T04:11:41;98494.44;;;18.43;48.49
33163;BME280;29282;45.656;11.302;2023-04-27T04:14:06;98490.16;;;18.54;47.55
33163;BME280;29282;45.656;11.302;2023-04-27T04:16:32;98491.94;;;18.59;47.40
33163;BME280;29282;45.656;11.302;2023-04-27T04:18:58;98487.78;;;18.52;48.22
33163;BME280;29282;45.656;11.302;2023-04-27T04:21:23;98498.78;;;18.44;48.36
33163;BME280;29282;45.656;11.302;2023-04-27T04:23:49;98495.88;;;18.49;48.02
33163;BME280;29282;45.656;11.302;2023-04-27T04:26:14;98507.75;;;18.62;47.39
33163;BME280;29282;45.656;11.302;2023-04-27T04:28:40;98510.00;;;18.60;48.47
33163;BME280;29282;45.656;11.302;2023-04-27T04:31:06;98502.16;;;18.49;48.60
33163;BME280;29282;45.656;11.302;2023-04-27T04:33:33;98511.19;;;18.50;48.85
33163;BME280;29282;45.656;11.302;2023-04-27T04:36:02;98505.00;;;18.62;47.74
33163;BME280;29282;45.656;11.302;2023-04-27T04:38:28;98504.66;;;18.63;48.17
33163;BME280;29282;45.656;11.302;2023-04-27T04:40:54;98505.03;;;18.53;48.80
33163;BME280;29282;45.656;11.302;2023-04-27T04:43:19;98513.47;;;18.48;48.96
33163;BME280;29282;45.656;11.302;2023-04-27T04:45:45;98514.34;;;18.61;48.16
33163;BME280;29282;45.656;11.302;2023-04-27T04:48:13;98509.50;;;18.66;47.57
33163;BME280;29282;45.656;11.302;2023-04-27T04:50:39;98518.72;;;18.62;48.69
33163;BME280;29282;45.656;11.302;2023-04-27T04:53:06;98521.03;;;18.51;48.95
33163;BME280;29282;45.656;11.302;2023-04-27T04:55:32;98522.78;;;18.55;48.82
33163;BME280;29282;45.656;11.302;2023-04-27T04:57:57;98523.88;;;18.63;47.99
33163;BME280;29282;45.656;11.302;2023-04-27T05:00:23;98525.50;;;18.64;48.34
33163;BME280;29282;45.656;11.302;2023-04-27T05:02:48;98526.81;;;18.58;48.79
33163;BME280;29282;45.656;11.302;2023-04-27T05:05:14;98530.06;;;18.51;49.01
33163;BME280;29282;45.656;11.302;2023-04-27T05:07:40;98529.69;;;18.62;48.17
33163;BME280;29282;45.656;11.302;2023-04-27T05:10:06;98530.78;;;18.69;47.56
33163;BME280;29282;45.656;11.302;2023-04-27T05:12:31;98531.44;;;18.66;48.38
33163;BME280;29282;45.656;11.302;2023-04-27T05:14:57;98537.78;;;18.58;48.58
33163;BME280;29282;45.656;11.302;2023-04-27T05:17:22;98538.44;;;18.55;48.98
33163;BME280;29282;45.656;11.302;2023-04-27T05:19:48;98543.22;;;18.67;48.07
33163;BME280;29282;45.656;11.302;2023-04-27T05:22:13;98540.03;;;18.65;48.46
33163;BME280;29282;45.656;11.302;2023-04-27T05:24:39;98546.47;;;18.60;48.81
33163;BME280;29282;45.656;11.302;2023-04-27T05:27:05;98544.88;;;18.59;48.91
33163;BME280;29282;45.656;11.302;2023-04-27T05:29:30;98552.13;;;18.72;48.21
33163;BME280;29282;45.656;11.302;2023-04-27T05:31:55;98554.69;;;18.77;48.18
33163;BME280;29282;45.656;11.302;2023-04-27T05:34:21;98560.66;;;18.71;48.55
33163;BME280;29282;45.656;11.302;2023-04-27T05:36:46;98565.97;;;18.67;48.89
33163;BME280;29282;45.656;11.302;2023-04-27T05:39:12;98561.63;;;18.75;48.14
33163;BME280;29282;45.656;11.302;2023-04-27T05:41:38;98564.84;;;18.77;48.70
33163;BME280;29282;45.656;11.302;2023-04-27T05:44:04;98568.06;;;18.70;48.79
33163;BME280;29282;45.656;11.302;2023-04-27T05:46:30;98571.16;;;18.69;49.04
33163;BME280;29282;45.656;11.302;2023-04-27T05:48:55;98572.09;;;18.82;48.12
33163;BME280;29282;45.656;11.302;2023-04-27T05:51:21;98575.50;;;18.78;48.65
33163;BME280;29282;45.656;11.302;2023-04-27T05:53:47;98576.47;;;18.74;48.93
33163;BME280;29282;45.656;11.302;2023-04-27T05:56:12;98574.22;;;18.76;48.73
33163;BME280;29282;45.656;11.302;2023-04-27T05:58:38;98569.16;;;18.87;48.18
33163;BME280;29282;45.656;11.302;2023-04-27T06:01:03;98564.19;;;18.80;48.97
33163;BME280;29282;45.656;11.302;2023-04-27T06:03:29;98565.19;;;18.75;48.91
33163;BME280;29282;45.656;11.302;2023-04-27T06:05:57;98573.56;;;18.79;48.70
33163;BME280;29282;45.656;11.302;2023-04-27T06:08:22;98567.56;;;18.86;48.11
33163;BME280;29282;45.656;11.302;2023-04-27T06:10:49;98573.03;;;18.86;48.54
33163;BME280;29282;45.656;11.302;2023-04-27T06:13:15;98567.28;;;18.78;48.99
33163;BME280;29282;45.656;11.302;2023-04-27T06:15:41;98563.25;;;18.76;49.20
33163;BME280;29282;45.656;11.302;2023-04-27T06:18:07;98563.66;;;18.87;48.28
33163;BME280;29282;45.656;11.302;2023-04-27T06:20:33;98564.47;;;18.87;48.78
33163;BME280;29282;45.656;11.302;2023-04-27T06:22:59;98560.63;;;18.80;48.76
33163;BME280;29282;45.656;11.302;2023-04-27T06:25:25;98563.59;;;18.74;49.24
33163;BME280;29282;45.656;11.302;2023-04-27T06:27:54;98562.06;;;18.86;48.44
33163;BME280;29282;45.656;11.302;2023-04-27T06:30:21;98556.56;;;18.86;49.09
33163;BME280;29282;45.656;11.302;2023-04-27T06:32:47;98562.94;;;18.77;49.35
33163;BME280;29282;45.656;11.302;2023-04-27T06:35:12;98563.72;;;18.78;49.19
33163;BME280;29282;45.656;11.302;2023-04-27T06:37:38;98566.41;;;18.87;48.38
33163;BME280;29282;45.656;11.302;2023-04-27T06:40:04;98570.13;;;18.91;47.86
33163;BME280;29282;45.656;11.302;2023-04-27T06:42:30;98570.31;;;18.86;49.01
33163;BME280;29282;45.656;11.302;2023-04-27T06:44:56;98567.41;;;18.82;49.27
33163;BME280;29282;45.656;11.302;2023-04-27T06:47:22;98566.78;;;18.76;50.06
33163;BME280;29282;45.656;11.302;2023-04-27T06:49:48;98570.66;;;18.75;50.54
33163;BME280;29282;45.656;11.302;2023-04-27T06:52:13;98577.31;;;18.74;51.01
33163;BME280;29282;45.656;11.302;2023-04-27T06:54:39;98578.91;;;18.75;51.06
33163;BME280;29282;45.656;11.302;2023-04-27T06:57:05;98571.81;;;18.74;51.38
33163;BME280;29282;45.656;11.302;2023-04-27T06:59:31;98576.47;;;18.74;50.97
33163;BME280;29282;45.656;11.302;2023-04-27T07:01:56;98572.75;;;18.70;51.37
33163;BME280;29282;45.656;11.302;2023-04-27T07:04:22;98576.66;;;18.69;51.29
33163;BME280;29282;45.656;11.302;2023-04-27T07:06:48;98576.16;;;18.67;51.14
33163;BME280;29282;45.656;11.302;2023-04-27T07:09:13;98579.69;;;18.67;50.91
33163;BME280;29282;45.656;11.302;2023-04-27T07:11:39;98565.97;;;18.67;51.05
33163;BME280;29282;45.656;11.302;2023-04-27T07:14:04;98572.31;;;18.68;50.81
33163;BME280;29282;45.656;11.302;2023-04-27T07:16:30;98565.19;;;18.67;50.87
33163;BME280;29282;45.656;11.302;2023-04-27T07:18:55;98565.53;;;18.65;50.72
33163;BME280;29282;45.656;11.302;2023-04-27T07:21:21;98569.06;;;18.66;50.86
33163;BME280;29282;45.656;11.302;2023-04-27T07:23:46;98568.25;;;18.65;50.68
33163;BME280;29282;45.656;11.302;2023-04-27T07:26:12;98570.22;;;18.65;50.80
33163;BME280;29282;45.656;11.302;2023-04-27T07:28:37;98570.53;;;18.63;50.75
33163;BME280;29282;45.656;11.302;2023-04-27T07:31:04;98566.19;;;18.62;50.78
33163;BME280;29282;45.656;11.302;2023-04-27T07:33:30;98561.50;;;18.63;50.78
33163;BME280;29282;45.656;11.302;2023-04-27T07:35:56;98562.63;;;18.62;50.76
33163;BME280;29282;45.656;11.302;2023-04-27T07:38:22;98561.34;;;18.59;50.87
33163;BME280;29282;45.656;11.302;2023-04-27T07:40:48;98563.75;;;18.61;50.76
33163;BME280;29282;45.656;11.302;2023-04-27T07:43:14;98560.53;;;18.59;50.72
33163;BME280;29282;45.656;11.302;2023-04-27T07:45:40;98569.56;;;18.59;50.78
33163;BME280;29282;45.656;11.302;2023-04-27T07:48:06;98571.53;;;18.59;50.79
33163;BME280;29282;45.656;11.302;2023-04-27T07:50:32;98560.84;;;18.57;50.71
33163;BME280;29282;45.656;11.302;2023-04-27T07:52:58;98573.47;;;18.58;50.54
33163;BME280;29282;45.656;11.302;2023-04-27T07:55:24;98573.78;;;18.57;50.71
33163;BME280;29282;45.656;11.302;2023-04-27T07:57:51;98573.78;;;18.57;50.73
33163;BME280;29282;45.656;11.302;2023-04-27T08:00:17;98567.50;;;18.56;50.84
33163;BME280;29282;45.656;11.302;2023-04-27T08:02:43;98573.31;;;18.54;50.71
33163;BME280;29282;45.656;11.302;2023-04-27T08:05:09;98568.94;;;18.53;50.71
33163;BME280;29282;45.656;11.302;2023-04-27T08:07:34;98567.34;;;18.52;50.81
33163;BME280;29282;45.656;11.302;2023-04-27T08:10:00;98573.31;;;18.54;50.77
33163;BME280;29282;45.656;11.302;2023-04-27T08:12:26;98578.81;;;18.54;50.77
33163;BME280;29282;45.656;11.302;2023-04-27T08:14:51;98572.50;;;18.54;50.74
33163;BME280;29282;45.656;11.302;2023-04-27T08:17:17;98574.44;;;18.53;51.00
33163;BME280;29282;45.656;11.302;2023-04-27T08:19:43;98576.38;;;18.53;50.90
33163;BME280;29282;45.656;11.302;2023-04-27T08:22:08;98573.97;;;18.51;50.81
33163;BME280;29282;45.656;11.302;2023-04-27T08:24:34;98579.13;;;18.53;50.88
33163;BME280;29282;45.656;11.302;2023-04-27T08:27:00;98573.16;;;18.51;50.85
33163;BME280;29282;45.656;11.302;2023-04-27T08:29:27;98584.16;;;18.51;50.76
33163;BME280;29282;45.656;11.302;2023-04-27T08:31:53;98575.91;;;18.51;50.90
33163;BME280;29282;45.656;11.302;2023-04-27T08:34:19;98578.66;;;18.51;50.77
33163;BME280;29282;45.656;11.302;2023-04-27T08:36:45;98577.81;;;18.50;50.85
33163;BME280;29282;45.656;11.302;2023-04-27T08:39:10;98575.44;;;18.49;50.99
33163;BME280;29282;45.656;11.302;2023-04-27T08:41:41;98586.41;;;18.49;50.89
33163;BME280;29282;45.656;11.302;2023-04-27T08:44:06;98578.16;;;18.49;50.90
33163;BME280;29282;45.656;11.302;2023-04-27T08:46:32;98578.16;;;18.49;50.92
33163;BME280;29282;45.656;11.302;2023-04-27T08:48:57;98583.97;;;18.47;51.01
33163;BME280;29282;45.656;11.302;2023-04-27T08:51:23;98579.31;;;18.48;50.97
33163;BME280;29282;45.656;11.302;2023-04-27T08:53:56;98583.97;;;18.47;50.89
33163;BME280;29282;45.656;11.302;2023-04-27T08:56:26;98583.97;;;18.47;50.81
33163;BME280;29282;45.656;11.302;2023-04-27T08:58:53;98583.16;;;18.47;50.88
33163;BME280;29282;45.656;11.302;2023-04-27T09:01:19;98585.09;;;18.46;50.87
33163;BME280;29282;45.656;11.302;2023-04-27T09:03:46;98583.50;;;18.45;50.83
33163;BME280;29282;45.656;11.302;2023-04-27T09:06:12;98582.38;;;18.46;50.51
33163;BME280;29282;45.656;11.302;2023-04-27T09:08:47;98585.09;;;18.46;50.86
33163;BME280;29282;45.656;11.302;2023-04-27T09:11:14;98580.75;;;18.45;50.61
33163;BME280;29282;45.656;11.302;2023-04-27T09:13:41;98583.50;;;18.45;50.85
33163;BME280;29282;45.656;11.302;2023-04-27T09:16:11;98583.50;;;18.45;50.74
33163;BME280;29282;45.656;11.302;2023-04-27T09:18:40;98580.75;;;18.45;50.93
33163;BME280;29282;45.656;11.302;2023-04-27T09:21:06;98586.25;;;18.45;50.72
33163;BME280;29282;45.656;11.302;2023-04-27T09:23:34;98579.97;;;18.45;50.85
33163;BME280;29282;45.656;11.302;2023-04-27T09:26:05;98585.44;;;18.45;50.71
33163;BME280;29282;45.656;11.302;2023-04-27T09:28:37;98579.16;;;18.44;50.84
33163;BME280;29282;45.656;11.302;2023-04-27T09:31:03;98579.16;;;18.44;50.81
33163;BME280;29282;45.656;11.302;2023-04-27T09:33:31;98569.00;;;18.45;50.70
33163;BME280;29282;45.656;11.302;2023-04-27T09:36:02;98577.22;;;18.45;50.77
33163;BME280;29282;45.656;11.302;2023-04-27T09:38:28;98579.16;;;18.44;50.87
33163;BME280;29282;45.656;11.302;2023-04-27T09:40:54;98575.28;;;18.45;50.62
33163;BME280;29282;45.656;11.302;2023-04-27T09:43:21;98572.03;;;18.43;50.73
33163;BME280;29282;45.656;11.302;2023-04-27T09:45:48;98571.25;;;18.43;51.02
33163;BME280;29282;45.656;11.302;2023-04-27T09:48:14;98572.03;;;18.43;50.73
33163;BME280;29282;45.656;11.302;2023-04-27T09:50:42;98564.97;;;18.42;50.61
33163;BME280;29282;45.656;11.302;2023-04-27T09:53:13;98564.97;;;18.42;50.78
33163;BME280;29282;45.656;11.302;2023-04-27T10:04:12;98557.03;;;18.41;50.70
33163;BME280;29282;45.656;11.302;2023-04-27T10:06:57;98555.13;;;18.41;50.63
33163;BME280;29282;45.656;11.302;2023-04-27T10:09:23;98552.38;;;18.41;50.35
33163;BME280;29282;45.656;11.302;2023-04-27T10:11:51;98548.81;;;18.41;50.58
33163;BME280;29282;45.656;11.302;2023-04-27T10:14:18;98547.22;;;18.40;50.60
33163;BME280;29282;45.656;11.302;2023-04-27T10:16:52;98555.44;;;18.40;50.68
33163;BME280;29282;45.656;11.302;2023-04-27T10:19:19;98547.22;;;18.40;50.58
33163;BME280;29282;45.656;11.302;2023-04-27T10:24:16;98549.94;;;18.40;50.48
33163;BME280;29282;45.656;11.302;2023-04-27T10:26:46;98545.25;;;18.40;50.50
33163;BME280;29282;45.656;11.302;2023-04-27T10:29:11;98543.66;;;18.39;50.67
33163;BME280;29282;45.656;11.302;2023-04-27T10:31:45;98551.09;;;18.39;50.50
33163;BME280;29282;45.656;11.302;2023-04-27T10:34:15;98548.34;;;18.39;50.71
33163;BME280;29282;45.656;11.302;2023-04-27T10:36:41;98544.47;;;18.40;50.55
33163;BME280;29282;45.656;11.302;2023-04-27T10:39:16;98542.06;;;18.38;50.69
33163;BME280;29282;45.656;11.302;2023-04-27T10:41:53;98538.97;;;18.40;50.45
33163;BME280;29282;45.656;11.302;2023-04-27T10:44:24;98540.13;;;18.39;50.60
33163;BME280;29282;45.656;11.302;2023-04-27T10:46:54;98531.91;;;18.39;50.52
33163;BME280;29282;45.656;11.302;2023-04-27T10:49:20;98537.38;;;18.39;50.58
33163;BME280;29282;45.656;11.302;2023-04-27T10:51:49;98542.88;;;18.39;50.44
33163;BME280;29282;45.656;11.302;2023-04-27T10:54:15;98539.31;;;18.38;50.30
33163;BME280;29282;45.656;11.302;2023-04-27T10:56:41;98547.56;;;18.38;50.62
33163;BME280;29282;45.656;11.302;2023-04-27T10:59:07;98541.25;;;18.38;50.51
33163;BME280;29282;45.656;11.302;2023-04-27T11:01:32;98543.66;;;18.39;50.59
33163;BME280;29282;45.656;11.302;2023-04-27T11:03:59;98538.53;;;18.38;50.40
33163;BME280;29282;45.656;11.302;2023-04-27T11:06:25;98538.53;;;18.38;50.42
33163;BME280;29282;45.656;11.302;2023-04-27T11:08:56;98541.25;;;18.38;50.40
33163;BME280;29282;45.656;11.302;2023-04-27T11:11:21;98529.47;;;18.37;50.40
33163;BME280;29282;45.656;11.302;2023-04-27T11:13:49;98531.09;;;18.38;50.50
33163;BME280;29282;45.656;11.302;2023-04-27T11:16:15;98534.94;;;18.37;50.60
33163;BME280;29282;45.656;11.302;2023-04-27T11:18:41;98535.78;;;18.38;50.39
33163;BME280;29282;45.656;11.302;2023-04-27T11:21:11;98535.78;;;18.38;50.53
33163;BME280;29282;45.656;11.302;2023-04-27T11:23:37;98530.28;;;18.38;50.37
33163;BME280;29282;45.656;11.302;2023-04-27T11:26:17;98529.47;;;18.37;50.41
33163;BME280;29282;45.656;11.302;2023-04-27T11:28:43;98523.16;;;18.37;50.42
33163;BME280;29282;45.656;11.302;2023-04-27T11:31:09;98519.31;;;18.38;50.48
33163;BME280;29282;45.656;11.302;2023-04-27T11:33:35;98523.97;;;18.37;50.28
33163;BME280;29282;45.656;11.302;2023-04-27T11:36:01;98527.53;;;18.38;50.26
33163;BME280;29282;45.656;11.302;2023-04-27T11:38:33;98528.34;;;18.38;50.46
33163;BME280;29282;45.656;11.302;2023-04-27T11:41:07;98534.16;;;18.37;50.24
33163;BME280;29282;45.656;11.302;2023-04-27T11:43:33;98524.81;;;18.38;50.37
33163;BME280;29282;45.656;11.302;2023-04-27T11:46:03;98530.28;;;18.38;50.24
33163;BME280;29282;45.656;11.302;2023-04-27T11:48:28;98525.13;;;18.36;50.38
33163;BME280;29282;45.656;11.302;2023-04-27T11:50:57;98522.06;;;18.38;50.40
33163;BME280;29282;45.656;11.302;2023-04-27T11:53:34;98517.69;;;18.37;50.21
33163;BME280;29282;45.656;11.302;2023-04-27T11:56:03;98518.84;;;18.36;50.38
33163;BME280;29282;45.656;11.302;2023-04-27T11:58:38;98516.09;;;18.36;50.27
33163;BME280;29282;45.656;11.302;2023-04-27T12:01:08;98510.59;;;18.36;50.32
33163;BME280;29282;45.656;11.302;2023-04-27T12:03:37;98509.47;;;18.37;50.29
33163;BME280;29282;45.656;11.302;2023-04-27T12:06:06;98511.41;;;18.36;50.13
33163;BME280;29282;45.656;11.302;2023-04-27T12:08:33;98513.34;;;18.36;50.29
33163;BME280;29282;45.656;11.302;2023-04-27T12:10:58;98516.88;;;18.36;50.13
33163;BME280;29282;45.656;11.302;2023-04-27T12:13:24;98512.53;;;18.35;50.18
33163;BME280;29282;45.656;11.302;2023-04-27T12:15:50;98504.31;;;18.35;50.18
33163;BME280;29282;45.656;11.302;2023-04-27T12:18:17;98513.34;;;18.36;50.28
33163;BME280;29282;45.656;11.302;2023-04-27T12:20:44;98516.09;;;18.36;50.14
33163;BME280;29282;45.656;11.302;2023-04-27T12:23:12;98521.56;;;18.36;50.37
33163;BME280;29282;45.656;11.302;2023-04-27T12:25:38;98524.31;;;18.36;50.20
33163;BME280;29282;45.656;11.302;2023-04-27T12:28:05;98518.84;;;18.36;50.20
33163;BME280;29282;45.656;11.302;2023-04-27T12:30:31;98521.56;;;18.36;50.28
33163;BME280;29282;45.656;11.302;2023-04-27T12:32:56;98516.41;;;18.34;50.35
33163;BME280;29282;45.656;11.302;2023-04-27T12:35:24;98521.56;;;18.36;50.28
33163;BME280;29282;45.656;11.302;2023-04-27T12:37:50;98511.75;;;18.35;50.38
33163;BME280;29282;45.656;11.302;2023-04-27T12:40:17;98519.97;;;18.35;50.45
33163;BME280;29282;45.656;11.302;2023-04-27T12:42:42;98516.41;;;18.34;50.40
33163;BME280;29282;45.656;11.302;2023-04-27T12:45:08;98516.09;;;18.36;50.39
33163;BME280;29282;45.656;11.302;2023-04-27T12:47:34;98510.59;;;18.36;50.38
33163;BME280;29282;45.656;11.302;2023-04-27T12:49:59;98516.88;;;18.36;50.41
33163;BME280;29282;45.656;11.302;2023-04-27T12:52:26;98516.09;;;18.36;50.28
33163;BME280;29282;45.656;11.302;2023-04-27T12:54:51;98516.88;;;18.36;50.31
33163;BME280;29282;45.656;11.302;2023-04-27T12:57:22;98515.28;;;18.35;50.38